sensor_id;sensor_type;location;lat;lon;timestamp;temperature;humidity
5956;DHT22;3004;48.080;11.600;2023-07-30T00:00:37;17.00;99.90
5956;DHT22;3004;48.080;11.600;2023-07-30T00:03:09;16.90;99.90
5956;DHT22;3004;48.080;11.600;2023-07-30T00:05:38;17.00;99.90
5956;DHT22;3004;48.080;11.600;2023-07-30T00:08:09;16.90;99.90
5956;DHT22;3004;48.080;11.600;2023-07-30T00:10:38;16.80;99.90
5956;DHT22;3004;48.080;11.600;2023-07-30T00:13:05;16.80;99.90
5956;DHT22;3004;48.080;11.600;2023-07-30T00:15:35;16.80;99.90
5956;DHT22;3004;48.080;11.600;2023-07-30T00:18:06;16.80;99.90
5956;DHT22;3004;48.080;11.600;2023-07-30T00:20:34;16.80;99.90
5956;DHT22;3004;48.080;11.600;2023-07-30T00:23:01;16.70;99.90
5956;DHT22;3004;48.080;11.600;2023-07-30T00:25:28;16.70;99.90
5956;DHT22;3004;48.080;11.600;2023-07-30T00:27:55;16.80;99.90
5956;DHT22;3004;48.080;11.600;2023-07-30T00:30:22;16.80;99.90
5956;DHT22;3004;48.080;11.600;2023-07-30T00:32:51;16.80;99.90
5956;DHT22;3004;48.080;11.600;2023-07-30T00:35:19;16.80;99.90
5956;DHT22;3004;48.080;11.600;2023-07-30T00:37:48;16.80;99.90
5956;DHT22;3004;48.080;11.600;2023-07-30T00:50:22;16.70;99.90
5956;DHT22;3004;48.080;11.600;2023-07-30T00:52:53;16.70;99.90
5956;DHT22;3004;48.080;11.600;2023-07-30T00:55:23;16.60;99.90
5956;DHT22;3004;48.080;11.600;2023-07-30T00:57:50;16.70;99.90
5956;DHT22;3004;48.080;11.600;2023-07-30T01:00:18;16.60;99.90
5956;DHT22;3004;48.080;11.600;2023-07-30T01:02:45;16.40;99.90
5956;DHT22;3004;48.080;11.600;2023-07-30T01:05:14;16.30;99.90
5956;DHT22;3004;48.080;11.600;2023-07-30T01:07:47;16.40;99.90
5956;DHT22;3004;48.080;11.600;2023-07-30T01:10:27;16.40;99.90
5956;DHT22;3004;48.080;11.600;2023-07-30T01:13:05;16.50;99.90
5956;DHT22;3004;48.080;11.600;2023-07-30T01:15:37;16.50;99.90
5956;DHT22;3004;48.080;11.600;2023-07-30T01:18:05;16.50;99.90
5956;DHT22;3004;48.080;11.600;2023-07-30T01:20:34;16.40;99.90
5956;DHT22;3004;48.080;11.600;2023-07-30T01:23:05;16.40;99.90
5956;DHT22;3004;48.080;11.600;2023-07-30T01:25:37;16.30;99.90
5956;DHT22;3004;48.080;11.600;2023-07-30T01:28:16;16.40;99.90
5956;DHT22;3004;48.080;11.600;2023-07-30T01:30:45;16.30;99.90
5956;DHT22;3004;48.080;11.600;2023-07-30T01:34:54;16.30;99.90
5956;DHT22;3004;48.080;11.600;2023-07-30T01:36:54;16.20;99.90
5956;DHT22;3004;48.080;11.600;2023-07-30T01:39:27;16.20;99.90
5956;DHT22;3004;48.080;11.600;2023-07-30T01:41:55;16.20;99.90
5956;DHT22;3004;48.080;11.600;2023-07-30T01:44:22;16.10;99.90
5956;DHT22;3004;48.080;11.600;2023-07-30T01:46:49;16.20;99.90
5956;DHT22;3004;48.080;11.600;2023-07-30T01:49:29;16.20;99.90
5956;DHT22;3004;48.080;11.600;2023-07-30T01:51:59;16.30;99.90
5956;DHT22;3004;48.080;11.600;2023-07-30T01:54:27;16.40;99.90
5956;DHT22;3004;48.080;11.600;2023-07-30T01:57:00;16.40;99.90
5956;DHT22;3004;48.080;11.600;2023-07-30T01:59:30;16.50;99.90
5956;DHT22;3004;48.080;11.600;2023-07-30T02:01:58;16.40;99.90
5956;DHT22;3004;48.080;11.600;2023-07-30T02:04:27;16.60;99.90
5956;DHT22;3004;48.080;11.600;2023-07-30T02:06:57;16.50;99.90
5956;DHT22;3004;48.080;11.600;2023-07-30T02:16:16;16.50;99.90
5956;DHT22;3004;48.080;11.600;2023-07-30T02:18:43;16.70;99.90
5956;DHT22;3004;48.080;11.600;2023-07-30T02:21:17;16.60;99.90
5956;DHT22;3004;48.080;11.600;2023-07-30T02:23:44;16.50;99.90
5956;DHT22;3004;48.080;11.600;2023-07-30T02:26:11;16.60;99.90
5956;DHT22;3004;48.080;11.600;2023-07-30T02:28:38;16.70;99.90
5956;DHT22;3004;48.080;11.600;2023-07-30T02:31:13;16.70;99.90
5956;DHT22;3004;48.080;11.600;2023-07-30T02:33:45;16.70;99.90
5956;DHT22;3004;48.080;11.600;2023-07-30T02:36:25;16.70;99.90
5956;DHT22;3004;48.080;11.600;2023-07-30T02:38:54;16.80;99.90
5956;DHT22;3004;48.080;11.600;2023-07-30T02:44:07;17.00;99.90
5956;DHT22;3004;48.080;11.600;2023-07-30T02:46:38;17.10;99.90
5956;DHT22;3004;48.080;11.600;2023-07-30T02:49:11;17.10;99.90
5956;DHT22;3004;48.080;11.600;2023-07-30T02:51:39;17.10;99.90
5956;DHT22;3004;48.080;11.600;2023-07-30T02:54:08;17.20;99.90
5956;DHT22;3004;48.080;11.600;2023-07-30T02:56:36;17.30;99.90
5956;DHT22;3004;48.080;11.600;2023-07-30T02:59:14;17.30;99.90
5956;DHT22;3004;48.080;11.600;2023-07-30T03:05:07;17.30;99.90
5956;DHT22;3004;48.080;11.600;2023-07-30T03:07:35;17.30;99.90
5956;DHT22;3004;48.080;11.600;2023-07-30T03:10:07;17.40;99.90
5956;DHT22;3004;48.080;11.600;2023-07-30T03:15:57;17.40;99.90
5956;DHT22;3004;48.080;11.600;2023-07-30T03:18:27;17.40;99.90
5956;DHT22;3004;48.080;11.600;2023-07-30T03:21:00;17.40;99.90
5956;DHT22;3004;48.080;11.600;2023-07-30T03:23:28;17.40;99.90
5956;DHT22;3004;48.080;11.600;2023-07-30T03:26:21;17.50;99.90
5956;DHT22;3004;48.080;11.600;2023-07-30T03:29:16;17.50;99.90
5956;DHT22;3004;48.080;11.600;2023-07-30T03:31:49;17.50;99.90
5956;DHT22;3004;48.080;11.600;2023-07-30T05:23:58;17.70;99.90
5956;DHT22;3004;48.080;11.600;2023-07-30T05:26:25;17.80;99.90
5956;DHT22;3004;48.080;11.600;2023-07-30T05:28:52;17.80;99.90
5956;DHT22;3004;48.080;11.600;2023-07-30T05:31:19;17.80;99.90
5956;DHT22;3004;48.080;11.600;2023-07-30T05:33:46;17.80;99.90
5956;DHT22;3004;48.080;11.600;2023-07-30T05:36:12;18.00;99.90
5956;DHT22;3004;48.080;11.600;2023-07-30T05:38:39;18.00;99.90
5956;DHT22;3004;48.080;11.600;2023-07-30T05:41:08;18.20;99.90
5956;DHT22;3004;48.080;11.600;2023-07-30T05:43:34;18.40;99.90
5956;DHT22;3004;48.080;11.600;2023-07-30T05:46:01;18.50;99.90
5956;DHT22;3004;48.080;11.600;2023-07-30T05:48:28;18.60;99.90
5956;DHT22;3004;48.080;11.600;2023-07-30T05:50:55;18.60;99.90
5956;DHT22;3004;48.080;11.600;2023-07-30T05:53:22;18.70;99.90
5956;DHT22;3004;48.080;11.600;2023-07-30T05:55:49;18.70;99.90
5956;DHT22;3004;48.080;11.600;2023-07-30T05:58:17;18.80;99.90
5956;DHT22;3004;48.080;11.600;2023-07-30T06:00:44;18.80;99.90
5956;DHT22;3004;48.080;11.600;2023-07-30T06:03:11;18.90;99.90
5956;DHT22;3004;48.080;11.600;2023-07-30T06:05:41;19.00;99.90
5956;DHT22;3004;48.080;11.600;2023-07-30T06:08:08;19.00;99.90
5956;DHT22;3004;48.080;11.600;2023-07-30T06:10:35;19.00;99.90
5956;DHT22;3004;48.080;11.600;2023-07-30T06:13:03;19.10;99.90
5956;DHT22;3004;48.080;11.600;2023-07-30T06:15:31;19.20;99.90
5956;DHT22;3004;48.080;11.600;2023-07-30T06:17:58;19.30;99.90
5956;DHT22;3004;48.080;11.600;2023-07-30T06:20:25;19.20;99.90
5956;DHT22;3004;48.080;11.600;2023-07-30T06:22:53;19.10;99.90
5956;DHT22;3004;48.080;11.600;2023-07-30T06:25:19;19.30;99.90
5956;DHT22;3004;48.080;11.600;2023-07-30T06:27:47;19.20;99.90
5956;DHT22;3004;48.080;11.600;2023-07-30T06:30:13;19.30;99.90
5956;DHT22;3004;48.080;11.600;2023-07-30T06:32:42;19.40;99.90
5956;DHT22;3004;48.080;11.600;2023-07-30T06:35:09;19.50;99.90
5956;DHT22;3004;48.080;11.600;2023-07-30T06:37:36;19.60;99.90
5956;DHT22;3004;48.080;11.600;2023-07-30T06:40:03;19.60;99.90
5956;DHT22;3004;48.080;11.600;2023-07-30T06:42:31;19.70;99.90
5956;DHT22;3004;48.080;11.600;2023-07-30T06:44:58;19.90;99.90
5956;DHT22;3004;48.080;11.600;2023-07-30T06:47:25;19.90;99.90
5956;DHT22;3004;48.080;11.600;2023-07-30T06:49:53;19.90;99.90
5956;DHT22;3004;48.080;11.600;2023-07-30T06:52:20;19.90;99.90
5956;DHT22;3004;48.080;11.600;2023-07-30T06:54:47;19.90;99.90
5956;DHT22;3004;48.080;11.600;2023-07-30T06:57:14;20.00;99.90
5956;DHT22;3004;48.080;11.600;2023-07-30T06:59:41;20.10;99.90
5956;DHT22;3004;48.080;11.600;2023-07-30T07:02:07;20.10;99.90
5956;DHT22;3004;48.080;11.600;2023-07-30T07:04:34;20.20;99.90
5956;DHT22;3004;48.080;11.600;2023-07-30T07:07:03;20.20;99.90
5956;DHT22;3004;48.080;11.600;2023-07-30T07:09:30;20.30;99.90
5956;DHT22;3004;48.080;11.600;2023-07-30T07:11:59;20.40;99.90
5956;DHT22;3004;48.080;11.600;2023-07-30T07:14:26;20.40;99.90
5956;DHT22;3004;48.080;11.600;2023-07-30T07:16:55;20.50;99.90
5956;DHT22;3004;48.080;11.600;2023-07-30T07:19:22;20.50;99.90
5956;DHT22;3004;48.080;11.600;2023-07-30T07:21:49;20.60;99.90
5956;DHT22;3004;48.080;11.600;2023-07-30T07:24:18;20.70;99.90
5956;DHT22;3004;48.080;11.600;2023-07-30T07:26:45;20.70;99.90
5956;DHT22;3004;48.080;11.600;2023-07-30T07:29:15;20.80;99.90
5956;DHT22;3004;48.080;11.600;2023-07-30T07:31:42;20.90;99.90
5956;DHT22;3004;48.080;11.600;2023-07-30T07:34:09;21.00;99.90
5956;DHT22;3004;48.080;11.600;2023-07-30T07:36:37;20.90;99.90
5956;DHT22;3004;48.080;11.600;2023-07-30T07:39:04;20.90;99.90
5956;DHT22;3004;48.080;11.600;2023-07-30T07:41:32;21.00;99.90
5956;DHT22;3004;48.080;11.600;2023-07-30T07:43:59;21.00;99.90
5956;DHT22;3004;48.080;11.600;2023-07-30T07:46:26;20.90;99.90
5956;DHT22;3004;48.080;11.600;2023-07-30T07:48:53;21.00;99.90
5956;DHT22;3004;48.080;11.600;2023-07-30T07:51:19;21.10;99.90
5956;DHT22;3004;48.080;11.600;2023-07-30T07:53:46;21.20;99.90
5956;DHT22;3004;48.080;11.600;2023-07-30T07:56:13;21.30;99.90
5956;DHT22;3004;48.080;11.600;2023-07-30T07:58:41;21.00;99.90
5956;DHT22;3004;48.080;11.600;2023-07-30T08:01:09;21.00;99.90
5956;DHT22;3004;48.080;11.600;2023-07-30T08:03:36;20.90;99.90
5956;DHT22;3004;48.080;11.600;2023-07-30T08:06:03;20.70;99.90
5956;DHT22;3004;48.080;11.600;2023-07-30T08:08:29;20.60;99.90
5956;DHT22;3004;48.080;11.600;2023-07-30T08:10:56;20.60;99.90
5956;DHT22;3004;48.080;11.600;2023-07-30T08:13:23;20.80;99.90
5956;DHT22;3004;48.080;11.600;2023-07-30T08:15:51;21.20;99.90
5956;DHT22;3004;48.080;11.600;2023-07-30T08:18:18;21.50;99.90
5956;DHT22;3004;48.080;11.600;2023-07-30T08:20:45;21.60;99.90
5956;DHT22;3004;48.080;11.600;2023-07-30T08:23:12;21.70;99.90
5956;DHT22;3004;48.080;11.600;2023-07-30T08:25:39;21.50;99.90
5956;DHT22;3004;48.080;11.600;2023-07-30T08:28:06;21.40;99.90
5956;DHT22;3004;48.080;11.600;2023-07-30T08:30:33;21.50;99.90
5956;DHT22;3004;48.080;11.600;2023-07-30T08:33:01;21.50;99.90
5956;DHT22;3004;48.080;11.600;2023-07-30T08:35:28;21.70;99.90
5956;DHT22;3004;48.080;11.600;2023-07-30T08:37:55;21.70;99.90
5956;DHT22;3004;48.080;11.600;2023-07-30T08:40:22;21.80;99.90
5956;DHT22;3004;48.080;11.600;2023-07-30T08:42:50;21.90;99.90
5956;DHT22;3004;48.080;11.600;2023-07-30T08:45:17;21.90;99.90
5956;DHT22;3004;48.080;11.600;2023-07-30T08:47:45;21.80;99.90
5956;DHT22;3004;48.080;11.600;2023-07-30T08:50:13;21.80;99.90
5956;DHT22;3004;48.080;11.600;2023-07-30T08:52:41;21.70;99.90
5956;DHT22;3004;48.080;11.600;2023-07-30T08:55:08;21.60;99.90
5956;DHT22;3004;48.080;11.600;2023-07-30T08:57:41;21.50;99.90
5956;DHT22;3004;48.080;11.600;2023-07-30T09:00:10;21.60;99.90
5956;DHT22;3004;48.080;11.600;2023-07-30T09:02:39;21.90;99.90
5956;DHT22;3004;48.080;11.600;2023-07-30T09:05:08;22.00;99.90
5956;DHT22;3004;48.080;11.600;2023-07-30T09:07:36;21.80;99.90
5956;DHT22;3004;48.080;11.600;2023-07-30T09:10:04;21.70;99.90
5956;DHT22;3004;48.080;11.600;2023-07-30T09:12:31;21.80;99.90
5956;DHT22;3004;48.080;11.600;2023-07-30T09:14:59;21.80;99.90
5956;DHT22;3004;48.080;11.600;2023-07-30T09:17:26;21.90;99.90
5956;DHT22;3004;48.080;11.600;2023-07-30T09:19:53;22.10;99.90
5956;DHT22;3004;48.080;11.600;2023-07-30T09:22:24;22.20;99.90
5956;DHT22;3004;48.080;11.600;2023-07-30T09:24:52;22.20;99.90
5956;DHT22;3004;48.080;11.600;2023-07-30T09:27:21;22.20;99.90
5956;DHT22;3004;48.080;11.600;2023-07-30T09:29:51;22.20;99.90
5956;DHT22;3004;48.080;11.600;2023-07-30T09:32:19;22.40;99.90
5956;DHT22;3004;48.080;11.600;2023-07-30T09:34:46;22.60;99.90
5956;DHT22;3004;48.080;11.600;2023-07-30T09:37:13;22.70;99.90
5956;DHT22;3004;48.080;11.600;2023-07-30T09:39:41;22.80;99.90
5956;DHT22;3004;48.080;11.600;2023-07-30T09:42:09;22.80;99.90
5956;DHT22;3004;48.080;11.600;2023-07-30T09:44:37;22.60;99.90
5956;DHT22;3004;48.080;11.600;2023-07-30T09:47:05;22.80;99.90
5956;DHT22;3004;48.080;11.600;2023-07-30T09:49:35;22.70;99.90
5956;DHT22;3004;48.080;11.600;2023-07-30T09:52:03;22.40;99.90
5956;DHT22;3004;48.080;11.600;2023-07-30T10:33:04;18.20;99.90
5956;DHT22;3004;48.080;11.600;2023-07-30T10:35:42;17.90;99.90
5956;DHT22;3004;48.080;11.600;2023-07-30T10:42:12;18.00;99.90
5956;DHT22;3004;48.080;11.600;2023-07-30T10:47:39;18.50;99.90
5956;DHT22;3004;48.080;11.600;2023-07-30T10:50:42;18.70;99.90
5956;DHT22;3004;48.080;11.600;2023-07-30T10:53:28;19.00;99.90
5956;DHT22;3004;48.080;11.600;2023-07-30T10:56:26;19.40;99.90
5956;DHT22;3004;48.080;11.600;2023-07-30T11:26:58;21.10;99.90
5956;DHT22;3004;48.080;11.600;2023-07-30T11:29:28;21.30;99.90
5956;DHT22;3004;48.080;11.600;2023-07-30T11:31:59;21.80;99.90
5956;DHT22;3004;48.080;11.600;2023-07-30T11:34:28;22.00;99.90
5956;DHT22;3004;48.080;11.600;2023-07-30T11:37:05;22.10;99.90
5956;DHT22;3004;48.080;11.600;2023-07-30T11:39:34;22.10;99.90
5956;DHT22;3004;48.080;11.600;2023-07-30T11:42:07;22.20;99.90
5956;DHT22;3004;48.080;11.600;2023-07-30T11:44:35;22.20;99.90
5956;DHT22;3004;48.080;11.600;2023-07-30T11:47:05;22.20;99.90
5956;DHT22;3004;48.080;11.600;2023-07-30T11:49:37;22.10;99.90
5956;DHT22;3004;48.080;11.600;2023-07-30T11:52:06;22.00;99.90
5956;DHT22;3004;48.080;11.600;2023-07-30T11:54:34;22.10;99.90
5956;DHT22;3004;48.080;11.600;2023-07-30T11:57:01;22.30;99.90
5956;DHT22;3004;48.080;11.600;2023-07-30T11:59:33;22.60;99.90
5956;DHT22;3004;48.080;11.600;2023-07-30T12:02:02;22.90;99.90
5956;DHT22;3004;48.080;11.600;2023-07-30T12:04:30;23.00;99.90
5956;DHT22;3004;48.080;11.600;2023-07-30T12:07:03;22.60;99.90
5956;DHT22;3004;48.080;11.600;2023-07-30T12:09:35;22.10;99.90
5956;DHT22;3004;48.080;11.600;2023-07-30T12:12:04;22.00;99.90
5956;DHT22;3004;48.080;11.600;2023-07-30T12:14:52;22.00;99.90
5956;DHT22;3004;48.080;11.600;2023-07-30T12:17:28;22.00;99.90
5956;DHT22;3004;48.080;11.600;2023-07-30T12:20:00;22.20;99.90
5956;DHT22;3004;48.080;11.600;2023-07-30T12:22:35;22.40;99.90
5956;DHT22;3004;48.080;11.600;2023-07-30T12:25:06;22.40;99.90
5956;DHT22;3004;48.080;11.600;2023-07-30T12:27:35;22.20;99.90
5956;DHT22;3004;48.080;11.600;2023-07-30T12:30:07;22.00;99.90
5956;DHT22;3004;48.080;11.600;2023-07-30T12:32:34;22.00;99.90
5956;DHT22;3004;48.080;11.600;2023-07-30T12:35:10;21.90;99.90
5956;DHT22;3004;48.080;11.600;2023-07-30T12:37:42;22.00;99.90
5956;DHT22;3004;48.080;11.600;2023-07-30T12:40:10;21.80;99.90
5956;DHT22;3004;48.080;11.600;2023-07-30T12:42:43;21.90;99.90
5956;DHT22;3004;48.080;11.600;2023-07-30T12:45:59;21.70;99.90
5956;DHT22;3004;48.080;11.600;2023-07-30T13:34:39;22.50;99.90
5956;DHT22;3004;48.080;11.600;2023-07-30T13:37:24;22.20;99.90
5956;DHT22;3004;48.080;11.600;2023-07-30T13:40:10;21.70;99.90
5956;DHT22;3004;48.080;11.600;2023-07-30T13:42:48;21.50;99.90
5956;DHT22;3004;48.080;11.600;2023-07-30T13:45:17;21.30;99.90
5956;DHT22;3004;48.080;11.600;2023-07-30T13:48:05;21.20;99.90
5956;DHT22;3004;48.080;11.600;2023-07-30T13:50:44;21.20;99.90
5956;DHT22;3004;48.080;11.600;2023-07-30T14:00:08;20.70;99.90
5956;DHT22;3004;48.080;11.600;2023-07-30T14:02:49;20.40;99.90
5956;DHT22;3004;48.080;11.600;2023-07-30T14:05:26;20.00;99.90
5956;DHT22;3004;48.080;11.600;2023-07-30T14:07:55;20.30;99.90
5956;DHT22;3004;48.080;11.600;2023-07-30T14:10:41;20.60;99.90
5956;DHT22;3004;48.080;11.600;2023-07-30T14:13:21;20.50;99.90
5956;DHT22;3004;48.080;11.600;2023-07-30T14:16:05;20.40;99.90
5956;DHT22;3004;48.080;11.600;2023-07-30T14:18:35;20.70;99.90
5956;DHT22;3004;48.080;11.600;2023-07-30T14:44:43;21.30;99.90
5956;DHT22;3004;48.080;11.600;2023-07-30T14:47:49;21.10;99.90
5956;DHT22;3004;48.080;11.600;2023-07-30T14:50:10;21.20;99.90
5956;DHT22;3004;48.080;11.600;2023-07-30T14:52:54;21.60;99.90
5956;DHT22;3004;48.080;11.600;2023-07-30T15:32:15;22.00;99.90
5956;DHT22;3004;48.080;11.600;2023-07-30T15:34:45;21.90;99.90
5956;DHT22;3004;48.080;11.600;2023-07-30T15:51:02;21.70;99.90
5956;DHT22;3004;48.080;11.600;2023-07-30T15:53:38;21.60;99.90
5956;DHT22;3004;48.080;11.600;2023-07-30T15:56:16;21.60;99.90
5956;DHT22;3004;48.080;11.600;2023-07-30T16:09:12;21.50;99.90
5956;DHT22;3004;48.080;11.600;2023-07-30T16:11:59;21.50;99.90
5956;DHT22;3004;48.080;11.600;2023-07-30T16:17:49;21.60;99.90
5956;DHT22;3004;48.080;11.600;2023-07-30T16:20:16;21.70;99.90
5956;DHT22;3004;48.080;11.600;2023-07-30T16:22:46;21.70;99.90
5956;DHT22;3004;48.080;11.600;2023-07-30T16:35:21;21.80;99.90
5956;DHT22;3004;48.080;11.600;2023-07-30T16:52:07;22.10;99.90
5956;DHT22;3004;48.080;11.600;2023-07-30T17:11:44;21.80;99.90
5956;DHT22;3004;48.080;11.600;2023-07-30T17:14:11;21.60;99.90
5956;DHT22;3004;48.080;11.600;2023-07-30T17:16:40;21.50;99.90
5956;DHT22;3004;48.080;11.600;2023-07-30T17:19:09;21.40;99.90
5956;DHT22;3004;48.080;11.600;2023-07-30T17:21:42;21.30;99.90
5956;DHT22;3004;48.080;11.600;2023-07-30T17:24:11;21.20;99.90
5956;DHT22;3004;48.080;11.600;2023-07-30T17:26:43;21.20;99.90
5956;DHT22;3004;48.080;11.600;2023-07-30T17:29:10;21.10;99.90
5956;DHT22;3004;48.080;11.600;2023-07-30T17:31:47;21.10;99.90
5956;DHT22;3004;48.080;11.600;2023-07-30T17:37:39;20.90;99.90
5956;DHT22;3004;48.080;11.600;2023-07-30T17:40:10;20.90;99.90
5956;DHT22;3004;48.080;11.600;2023-07-30T17:46:03;20.70;99.90
5956;DHT22;3004;48.080;11.600;2023-07-30T17:48:32;20.70;99.90
5956;DHT22;3004;48.080;11.600;2023-07-30T17:50:59;20.80;99.90
5956;DHT22;3004;48.080;11.600;2023-07-30T17:53:26;20.90;99.90
5956;DHT22;3004;48.080;11.600;2023-07-30T17:56:00;20.80;99.90
5956;DHT22;3004;48.080;11.600;2023-07-30T17:58:27;20.70;99.90
5956;DHT22;3004;48.080;11.600;2023-07-30T18:00:54;20.60;99.90
5956;DHT22;3004;48.080;11.600;2023-07-30T18:07:07;20.60;99.90
5956;DHT22;3004;48.080;11.600;2023-07-30T18:16:37;20.30;99.90
5956;DHT22;3004;48.080;11.600;2023-07-30T18:19:04;20.20;99.90
5956;DHT22;3004;48.080;11.600;2023-07-30T18:21:31;20.10;99.90
5956;DHT22;3004;48.080;11.600;2023-07-30T18:24:00;20.00;99.90
5956;DHT22;3004;48.080;11.600;2023-07-30T19:17:00;19.00;99.90
5956;DHT22;3004;48.080;11.600;2023-07-30T20:05:40;18.50;99.90
5956;DHT22;3004;48.080;11.600;2023-07-30T20:08:23;18.50;99.90
5956;DHT22;3004;48.080;11.600;2023-07-30T20:10:52;18.40;99.90
5956;DHT22;3004;48.080;11.600;2023-07-30T20:13:22;18.50;99.90
5956;DHT22;3004;48.080;11.600;2023-07-30T20:15:53;18.40;99.90
5956;DHT22;3004;48.080;11.600;2023-07-30T20:18:23;18.40;99.90
5956;DHT22;3004;48.080;11.600;2023-07-30T20:24:15;18.40;99.90
5956;DHT22;3004;48.080;11.600;2023-07-30T20:26:47;18.30;99.90
5956;DHT22;3004;48.080;11.600;2023-07-30T20:39:34;18.10;99.90
5956;DHT22;3004;48.080;11.600;2023-07-30T20:42:06;18.00;99.90
5956;DHT22;3004;48.080;11.600;2023-07-30T20:44:46;18.00;99.90
5956;DHT22;3004;48.080;11.600;2023-07-30T20:47:16;17.90;99.90
5956;DHT22;3004;48.080;11.600;2023-07-30T20:49:43;17.90;99.90
5956;DHT22;3004;48.080;11.600;2023-07-30T20:52:10;17.90;99.90
5956;DHT22;3004;48.080;11.600;2023-07-30T20:54:38;17.80;99.90
5956;DHT22;3004;48.080;11.600;2023-07-30T20:57:06;17.80;99.90
5956;DHT22;3004;48.080;11.600;2023-07-30T20:59:33;17.80;99.90
5956;DHT22;3004;48.080;11.600;2023-07-30T21:02:00;17.80;99.90
5956;DHT22;3004;48.080;11.600;2023-07-30T21:04:26;17.70;99.90
5956;DHT22;3004;48.080;11.600;2023-07-30T21:06:53;17.70;99.90
5956;DHT22;3004;48.080;11.600;2023-07-30T21:09:20;17.60;99.90
5956;DHT22;3004;48.080;11.600;2023-07-30T21:11:49;17.60;99.90
5956;DHT22;3004;48.080;11.600;2023-07-30T21:14:16;17.50;99.90
5956;DHT22;3004;48.080;11.600;2023-07-30T21:16:43;17.50;99.90
5956;DHT22;3004;48.080;11.600;2023-07-30T21:19:09;17.40;99.90
5956;DHT22;3004;48.080;11.600;2023-07-30T21:21:36;17.20;99.90
5956;DHT22;3004;48.080;11.600;2023-07-30T21:24:03;17.10;99.90
5956;DHT22;3004;48.080;11.600;2023-07-30T21:26:30;17.00;99.90
5956;DHT22;3004;48.080;11.600;2023-07-30T21:28:58;16.90;99.90
5956;DHT22;3004;48.080;11.600;2023-07-30T21:31:25;16.90;99.90
5956;DHT22;3004;48.080;11.600;2023-07-30T21:33:52;16.90;99.90
5956;DHT22;3004;48.080;11.600;2023-07-30T21:36:19;16.90;99.90
5956;DHT22;3004;48.080;11.600;2023-07-30T21:38:46;16.90;99.90
5956;DHT22;3004;48.080;11.600;2023-07-30T21:41:13;16.80;99.90
